Time;durP1;ratioP1;P1;durP2;ratioP2;P2;SDS_P1;SDS_P2;PMS_P1;PMS_P2;Temp;Humidity;BMP_temperature;BMP_pressure;BME280_temperature;BME280_humidity;BME280_pressure;Samples;Min_cycle;Max_cycle;Signal;HPM_P1;HPM_P2
2023/07/20 00:00:29;;;;;;;1.38;0.70;;;14.90;99.90;;;;;;5119467;27;20081;-69
2023/07/20 00:03:16;;;;;;;2.75;0.80;;;14.80;99.90;;;;;;5136949;27;20070;-69
2023/07/20 00:05:48;;;;;;;2.72;0.85;;;14.80;99.90;;;;;;5137173;27;20546;-69
2023/07/20 00:08:15;;;;;;;1.42;0.75;;;14.80;99.90;;;;;;5118979;27;20522;-68
2023/07/20 00:10:41;;;;;;;2.75;0.80;;;14.80;99.90;;;;;;5137307;27;20043;-70
2023/07/20 00:13:07;;;;;;;2.55;1.10;;;14.80;99.90;;;;;;5136607;27;20043;-68
2023/07/20 00:15:33;;;;;;;2.50;1.13;;;14.80;99.90;;;;;;5153444;27;20043;-70
2023/07/20 00:17:58;;;;;;;4.57;1.02;;;14.90;99.90;;;;;;5140792;27;20428;-69
2023/07/20 00:20:25;;;;;;;3.40;1.20;;;14.90;99.90;;;;;;5168770;27;20119;-69
2023/07/20 00:22:51;;;;;;;3.05;1.17;;;14.90;99.90;;;;;;5119744;27;20075;-69
2023/07/20 00:25:18;;;;;;;3.67;1.38;;;14.90;99.90;;;;;;5119248;27;20047;-68
2023/07/20 00:27:44;;;;;;;3.75;1.05;;;14.90;99.90;;;;;;5118374;27;20532;-68
2023/07/20 00:30:10;;;;;;;3.90;1.58;;;14.90;99.90;;;;;;5136669;27;20079;-68
2023/07/20 00:32:36;;;;;;;2.88;1.20;;;14.80;99.90;;;;;;5117903;27;20047;-68
2023/07/20 00:35:01;;;;;;;5.28;1.20;;;14.80;99.90;;;;;;5118886;27;20113;-69
2023/07/20 00:37:27;;;;;;;2.95;1.17;;;14.90;99.90;;;;;;5136877;27;20043;-69
2023/07/20 00:39:53;;;;;;;3.10;1.52;;;14.90;99.90;;;;;;5118511;27;20050;-69
2023/07/20 00:42:19;;;;;;;3.22;1.50;;;14.80;99.90;;;;;;5136837;27;20050;-69
2023/07/20 00:44:45;;;;;;;2.60;1.38;;;14.80;99.90;;;;;;5118160;27;20043;-69
2023/07/20 00:47:10;;;;;;;2.92;1.55;;;14.80;99.90;;;;;;5136725;27;20125;-69
2023/07/20 00:49:37;;;;;;;3.45;1.65;;;14.80;99.90;;;;;;5136633;27;20051;-69
2023/07/20 00:52:05;;;;;;;5.40;1.75;;;14.80;99.90;;;;;;5136968;27;20054;-68
2023/07/20 00:54:31;;;;;;;3.38;1.70;;;14.80;99.90;;;;;;5118518;27;20054;-69
2023/07/20 00:56:57;;;;;;;5.13;1.75;;;14.70;99.90;;;;;;5136391;27;20047;-68
2023/07/20 00:59:23;;;;;;;3.42;1.75;;;14.70;99.90;;;;;;5136435;27;20097;-68
2023/07/20 01:01:49;;;;;;;3.25;1.80;;;14.70;99.90;;;;;;5135456;27;20043;-68
2023/07/20 01:04:15;;;;;;;4.13;1.70;;;14.80;99.90;;;;;;5100769;27;20039;-68
2023/07/20 01:07:02;;;;;;;3.10;1.63;;;14.80;99.90;;;;;;5117576;27;20039;-67
2023/07/20 01:09:41;;;;;;;4.82;1.92;;;14.80;99.90;;;;;;5152751;27;20051;-67
2023/07/20 01:12:09;;;;;;;3.60;1.85;;;14.80;99.90;;;;;;5135601;27;20079;-68
2023/07/20 01:14:36;;;;;;;5.35;1.95;;;14.80;99.90;;;;;;5117455;27;20055;-68
2023/07/20 01:17:02;;;;;;;5.20;2.15;;;14.80;99.90;;;;;;5151627;27;20313;-68
2023/07/20 01:19:28;;;;;;;5.07;2.10;;;14.70;99.90;;;;;;5151571;27;20524;-67
2023/07/20 01:22:15;;;;;;;5.20;2.42;;;14.70;99.90;;;;;;5135412;27;20130;-68
2023/07/20 01:24:59;;;;;;;4.15;2.00;;;14.70;99.90;;;;;;5136297;27;20368;-68
2023/07/20 01:27:43;;;;;;;4.18;2.28;;;14.80;99.90;;;;;;5135144;27;20491;-68
2023/07/20 01:30:39;;;;;;;5.40;2.63;;;14.70;99.90;;;;;;5135325;27;20043;-68
2023/07/20 01:33:07;;;;;;;4.20;2.30;;;14.70;99.90;;;;;;5135285;27;20064;-68
2023/07/20 01:35:34;;;;;;;8.35;2.75;;;14.70;99.90;;;;;;5136053;27;20484;-68
2023/07/20 01:38:00;;;;;;;7.18;2.70;;;14.70;99.90;;;;;;5135931;27;20051;-68
2023/07/20 01:40:27;;;;;;;4.35;2.50;;;14.60;99.90;;;;;;5116960;27;20051;-68
2023/07/20 01:42:53;;;;;;;7.53;3.28;;;14.60;99.90;;;;;;5135087;27;20440;-68
2023/07/20 01:45:19;;;;;;;6.70;2.77;;;14.50;99.90;;;;;;5134326;27;20096;-67
2023/07/20 01:47:45;;;;;;;5.82;2.97;;;14.50;99.90;;;;;;5135027;27;20039;-67
2023/07/20 01:50:11;;;;;;;4.85;3.15;;;14.40;99.90;;;;;;5117053;27;20134;-67
2023/07/20 01:52:37;;;;;;;6.85;3.20;;;14.40;99.90;;;;;;5134950;27;20402;-68
2023/07/20 01:55:04;;;;;;;7.03;3.30;;;14.30;99.90;;;;;;5116772;27;20043;-67
2023/07/20 01:57:30;;;;;;;5.75;3.65;;;14.20;99.90;;;;;;5134802;27;20050;-68
2023/07/20 01:59:55;;;;;;;5.15;3.20;;;14.20;99.90;;;;;;5116863;27;20035;-68
2023/07/20 02:02:26;;;;;;;5.50;3.13;;;14.10;99.90;;;;;;5082796;27;20130;-68
2023/07/20 02:04:52;;;;;;;5.60;2.97;;;14.00;99.90;;;;;;5134831;27;20126;-68
2023/07/20 02:07:17;;;;;;;6.68;3.08;;;14.00;99.90;;;;;;5133827;27;20085;-67
2023/07/20 02:09:43;;;;;;;7.15;3.20;;;13.90;99.90;;;;;;5150836;27;20470;-68
2023/07/20 02:12:09;;;;;;;5.93;3.15;;;13.90;99.90;;;;;;5134566;27;20043;-67
2023/07/20 02:14:35;;;;;;;5.13;3.00;;;13.80;99.90;;;;;;5134595;27;20471;-67
2023/07/20 02:17:01;;;;;;;5.78;2.80;;;13.80;99.90;;;;;;5099526;27;20143;-68
2023/07/20 02:19:27;;;;;;;5.43;3.20;;;13.70;99.90;;;;;;5100329;27;20054;-68
2023/07/20 02:21:53;;;;;;;5.88;3.05;;;13.70;99.90;;;;;;5135288;27;20047;-68
2023/07/20 02:24:18;;;;;;;5.55;3.35;;;13.70;99.90;;;;;;5134416;27;20501;-68
2023/07/20 02:26:44;;;;;;;7.22;3.28;;;13.60;99.90;;;;;;5134417;27;20050;-68
2023/07/20 02:29:11;;;;;;;7.32;3.30;;;13.60;99.90;;;;;;5134363;27;20035;-68
2023/07/20 02:31:39;;;;;;;;;;;13.50;99.90;;;;;;5100062;28;20051;-69
2023/07/20 02:34:05;;;;;;;8.25;2.85;;;13.50;99.90;;;;;;5134284;27;20362;-68
2023/07/20 02:36:32;;;;;;;4.95;2.90;;;13.50;99.90;;;;;;5134667;28;20383;-69
2023/07/20 02:38:58;;;;;;;;;;;13.40;99.90;;;;;;5099471;28;20054;-68
2023/07/20 02:41:24;;;;;;;7.70;3.05;;;13.40;99.90;;;;;;5134296;28;19919;-68
2023/07/20 02:43:50;;;;;;;7.30;3.10;;;13.40;99.90;;;;;;5134293;28;20095;-68
2023/07/20 02:46:15;;;;;;;7.97;3.28;;;13.30;99.90;;;;;;5134465;28;20050;-68
2023/07/20 02:48:41;;;;;;;6.53;3.17;;;13.30;99.90;;;;;;5134747;28;20047;-68
2023/07/20 02:51:07;;;;;;;6.25;3.58;;;13.20;99.90;;;;;;5115894;28;20043;-68
2023/07/20 02:53:33;;;;;;;5.20;3.10;;;13.20;99.90;;;;;;5134222;28;20055;-68
2023/07/20 02:55:59;;;;;;;7.47;3.60;;;13.10;99.90;;;;;;5135518;27;20050;-68
2023/07/20 02:58:25;;;;;;;6.60;3.35;;;13.10;99.90;;;;;;5120391;27;20036;-68
2023/07/20 03:00:50;;;;;;;6.63;3.50;;;13.10;99.90;;;;;;5103024;27;20043;-68
2023/07/20 03:03:16;;;;;;;8.32;4.00;;;13.10;99.90;;;;;;5102841;27;20096;-67
2023/07/20 03:05:42;;;;;;;7.68;3.63;;;13.00;99.90;;;;;;5138910;27;20090;-67
2023/07/20 03:08:08;;;;;;;10.10;4.13;;;13.00;99.90;;;;;;5120737;27;20035;-67
2023/07/20 03:10:40;;;;;;;6.85;3.53;;;13.00;99.90;;;;;;5138075;27;20046;-67
2023/07/20 03:13:06;;;;;;;7.53;3.53;;;12.90;99.90;;;;;;5137954;27;20050;-67
2023/07/20 03:15:32;;;;;;;9.03;3.73;;;12.90;99.90;;;;;;5138096;27;20126;-69
2023/07/20 03:17:58;;;;;;;7.60;3.72;;;12.80;99.90;;;;;;5119820;27;20464;-69
2023/07/20 03:20:24;;;;;;;6.43;3.80;;;12.80;99.90;;;;;;5154772;27;20383;-68
2023/07/20 03:22:50;;;;;;;6.97;3.70;;;12.70;99.90;;;;;;5137774;27;20047;-67
2023/07/20 03:25:16;;;;;;;8.30;4.10;;;12.70;99.90;;;;;;5137686;27;20046;-67
2023/07/20 03:27:41;;;;;;;7.82;3.90;;;12.70;99.90;;;;;;5119219;27;20122;-67
2023/07/20 03:30:09;;;;;;;6.95;3.40;;;12.60;99.90;;;;;;5136460;27;20047;-68
2023/07/20 03:32:35;;;;;;;7.60;3.60;;;12.60;99.90;;;;;;5138082;27;20051;-68
2023/07/20 03:35:01;;;;;;;7.75;3.85;;;12.60;99.90;;;;;;5137509;27;20145;-67
2023/07/20 03:37:27;;;;;;;10.40;4.07;;;12.60;99.90;;;;;;5119213;27;20495;-68
2023/07/20 03:39:53;;;;;;;9.18;4.20;;;12.60;99.90;;;;;;5136420;27;20047;-68
2023/07/20 03:42:18;;;;;;;7.78;3.70;;;12.50;99.90;;;;;;5101972;27;20498;-68
2023/07/20 03:44:44;;;;;;;9.38;3.85;;;12.50;99.90;;;;;;5137406;27;20043;-68
2023/07/20 03:47:10;;;;;;;8.73;3.80;;;12.50;99.90;;;;;;5137755;27;20039;-68
2023/07/20 03:49:36;;;;;;;8.25;4.38;;;12.50;99.90;;;;;;5137252;27;20051;-68
2023/07/20 03:52:03;;;;;;;7.18;3.72;;;12.50;99.90;;;;;;5137199;27;20043;-67
2023/07/20 03:54:29;;;;;;;8.30;4.43;;;12.50;99.90;;;;;;5137146;27;20051;-68
2023/07/20 03:56:54;;;;;;;9.20;4.47;;;12.50;99.90;;;;;;5118988;27;20039;-68
2023/07/20 03:59:20;;;;;;;8.90;3.63;;;12.50;99.90;;;;;;5101822;27;20047;-68
2023/07/20 04:01:46;;;;;;;8.63;4.13;;;12.40;99.90;;;;;;5118735;27;20092;-69
2023/07/20 04:04:13;;;;;;;7.43;4.30;;;12.40;99.90;;;;;;5118513;27;20035;-69
2023/07/20 04:06:39;;;;;;;8.55;4.22;;;12.50;99.90;;;;;;5153236;27;20051;-68
2023/07/20 04:09:05;;;;;;;7.97;4.15;;;12.50;99.90;;;;;;5136409;27;20104;-68
2023/07/20 04:11:31;;;;;;;8.05;4.03;;;12.50;99.90;;;;;;5119198;27;20440;-68
2023/07/20 04:13:56;;;;;;;11.45;4.45;;;12.50;99.90;;;;;;5101623;27;20050;-69
2023/07/20 04:16:22;;;;;;;8.60;3.78;;;12.50;99.90;;;;;;5136561;27;20039;-67
2023/07/20 04:18:48;;;;;;;7.30;4.13;;;12.60;99.90;;;;;;5102248;27;20057;-67
2023/07/20 04:21:13;;;;;;;9.05;4.15;;;12.60;99.90;;;;;;5117926;27;20049;-68
2023/07/20 04:23:39;;;;;;;8.55;4.30;;;12.60;99.90;;;;;;5118533;27;20047;-67
2023/07/20 04:26:06;;;;;;;8.45;4.20;;;12.60;99.90;;;;;;5136596;27;20039;-68
2023/07/20 04:28:32;;;;;;;;;;;12.60;99.90;;;;;;5119070;27;20139;-68
2023/07/20 04:31:10;;;;;;;7.83;4.27;;;12.70;99.90;;;;;;5137389;27;19969;-68
2023/07/20 04:33:36;;;;;;;6.65;3.75;;;12.80;99.90;;;;;;5136488;27;20112;-68
2023/07/20 04:36:02;;;;;;;8.02;4.15;;;12.70;99.90;;;;;;5153379;27;20043;-68
2023/07/20 04:38:28;;;;;;;7.35;4.03;;;12.70;99.90;;;;;;5152911;27;20130;-69
2023/07/20 04:40:54;;;;;;;9.07;3.90;;;12.80;99.90;;;;;;5118168;27;20130;-68
2023/07/20 04:43:19;;;;;;;8.35;4.35;;;12.80;99.90;;;;;;5118655;27;20047;-68
2023/07/20 04:45:45;;;;;;;7.65;4.15;;;12.80;99.90;;;;;;5136192;27;20393;-67
2023/07/20 04:48:13;;;;;;;8.30;4.18;;;12.90;99.90;;;;;;5136224;27;20049;-68
2023/07/20 04:50:41;;;;;;;10.13;5.53;;;12.90;99.90;;;;;;5117979;27;20059;-67
2023/07/20 04:53:07;;;;;;;8.77;4.43;;;12.90;99.90;;;;;;5136196;27;20050;-69
2023/07/20 04:55:36;;;;;;;7.35;3.85;;;13.00;99.90;;;;;;5117995;27;20043;-68
2023/07/20 04:58:03;;;;;;;7.97;3.50;;;13.00;99.90;;;;;;5136744;27;20047;-68
2023/07/20 05:00:29;;;;;;;8.10;4.10;;;13.10;99.90;;;;;;5117530;27;20043;-68
2023/07/20 05:02:56;;;;;;;7.25;3.90;;;13.10;99.90;;;;;;5135733;27;20130;-68
2023/07/20 05:05:22;;;;;;;6.55;3.60;;;13.10;99.90;;;;;;5118437;27;20451;-68
2023/07/20 05:07:47;;;;;;;7.57;3.28;;;13.10;99.90;;;;;;5117804;27;20095;-67
2023/07/20 05:10:13;;;;;;;11.00;2.85;;;13.10;99.90;;;;;;5136360;27;20490;-68
2023/07/20 05:12:39;;;;;;;7.60;3.35;;;13.20;99.90;;;;;;5117472;27;20054;-68
2023/07/20 05:15:05;;;;;;;8.93;3.20;;;13.30;99.90;;;;;;5118276;27;20051;-68
2023/07/20 05:17:31;;;;;;;8.38;3.80;;;13.30;99.90;;;;;;5117419;27;20107;-68
2023/07/20 05:19:56;;;;;;;5.93;3.03;;;13.40;99.90;;;;;;5150524;27;20159;-68
2023/07/20 05:22:24;;;;;;;8.57;2.90;;;13.50;99.90;;;;;;5117045;27;20050;-68
2023/07/20 05:24:50;;;;;;;6.90;3.10;;;13.50;99.90;;;;;;5117056;27;20130;-68
2023/07/20 05:27:15;;;;;;;5.55;2.72;;;13.60;99.90;;;;;;5135323;27;20125;-68
2023/07/20 05:29:45;;;;;;;6.72;2.80;;;13.60;99.90;;;;;;5116908;27;20053;-68
2023/07/20 05:32:11;;;;;;;5.53;2.70;;;13.60;99.90;;;;;;5135562;27;20043;-68
2023/07/20 05:34:37;;;;;;;7.18;2.50;;;13.70;99.90;;;;;;5135136;27;20084;-66
2023/07/20 05:37:03;;;;;;;4.93;1.85;;;13.70;99.90;;;;;;5117619;27;20051;-66
2023/07/20 05:39:28;;;;;;;3.50;1.60;;;13.80;99.90;;;;;;5100254;27;20122;-68
2023/07/20 05:41:54;;;;;;;4.03;1.60;;;13.90;99.90;;;;;;5150873;27;20043;-68
2023/07/20 05:44:20;;;;;;;3.78;1.25;;;14.00;99.90;;;;;;5116748;27;20047;-67
2023/07/20 05:46:45;;;;;;;5.65;1.35;;;14.00;99.90;;;;;;5151559;27;20099;-67
2023/07/20 05:49:11;;;;;;;3.05;1.10;;;14.10;99.90;;;;;;5134014;27;20095;-67
2023/07/20 05:51:37;;;;;;;7.25;1.08;;;14.10;99.90;;;;;;5135654;27;20090;-68
2023/07/20 05:54:02;;;;;;;3.70;1.05;;;14.20;99.90;;;;;;5134862;27;20043;-68
2023/07/20 05:56:28;;;;;;;3.33;1.20;;;14.20;99.90;;;;;;5134634;27;20051;-67
2023/07/20 05:58:54;;;;;;;3.80;1.20;;;14.30;99.90;;;;;;5116640;27;20035;-67
2023/07/20 06:01:19;;;;;;;5.00;1.20;;;14.30;99.90;;;;;;5116433;27;20050;-67
2023/07/20 06:03:45;;;;;;;2.63;0.98;;;14.40;99.90;;;;;;5135400;27;20050;-68
2023/07/20 06:06:12;;;;;;;8.20;1.00;;;14.40;99.90;;;;;;5134667;27;20039;-67
2023/07/20 06:08:38;;;;;;;2.97;1.10;;;14.50;99.90;;;;;;5116395;27;20368;-67
2023/07/20 06:11:04;;;;;;;3.90;0.90;;;14.60;99.90;;;;;;5134564;27;20043;-67
2023/07/20 06:13:29;;;;;;;2.08;0.80;;;14.60;99.90;;;;;;5133456;27;20292;-68
2023/07/20 06:15:55;;;;;;;3.92;0.80;;;14.70;99.90;;;;;;5150604;27;20531;-67
2023/07/20 06:18:23;;;;;;;6.32;0.80;;;14.80;99.90;;;;;;5135067;27;20429;-68
2023/07/20 06:20:50;;;;;;;2.40;0.73;;;14.80;99.90;;;;;;5134279;27;20115;-68
2023/07/20 06:23:18;;;;;;;5.53;0.70;;;14.90;99.90;;;;;;5134452;27;20046;-68
2023/07/20 06:25:44;;;;;;;4.35;0.85;;;15.00;99.90;;;;;;5134270;27;20043;-68
2023/07/20 06:28:10;;;;;;;2.75;0.70;;;15.00;99.90;;;;;;5134366;27;20421;-69
2023/07/20 06:30:35;;;;;;;4.88;0.70;;;15.00;99.90;;;;;;5133887;27;20213;-68
2023/07/20 06:33:01;;;;;;;2.17;0.60;;;15.10;99.90;;;;;;5115871;28;20057;-69
2023/07/20 06:35:27;;;;;;;3.90;0.60;;;15.10;99.90;;;;;;5134214;27;20050;-68
2023/07/20 06:37:52;;;;;;;2.70;0.50;;;15.20;99.90;;;;;;5134281;28;20051;-69
2023/07/20 06:40:18;;;;;;;1.80;0.35;;;15.20;99.90;;;;;;5135020;28;20356;-67
2023/07/20 06:42:44;;;;;;;4.70;0.50;;;15.30;99.90;;;;;;5134842;28;20088;-69
2023/07/20 06:45:10;;;;;;;2.20;0.63;;;15.40;99.90;;;;;;5116657;28;20043;-69
2023/07/20 06:47:39;;;;;;;2.60;0.60;;;15.50;99.90;;;;;;5098964;28;20425;-70
2023/07/20 06:50:09;;;;;;;2.17;0.50;;;15.50;99.90;;;;;;5133998;28;20039;-70
2023/07/20 06:52:35;;;;;;;1.83;0.50;;;15.60;99.90;;;;;;5116867;28;20101;-71
2023/07/20 06:55:01;;;;;;;4.45;0.50;;;15.70;99.90;;;;;;5116213;28;20082;-70
2023/07/20 06:57:27;;;;;;;2.37;0.43;;;15.80;99.90;;;;;;5099338;28;20490;-70
2023/07/20 06:59:53;;;;;;;3.27;0.40;;;15.80;99.90;;;;;;5098768;28;20484;-70
2023/07/20 07:02:19;;;;;;;1.67;0.47;;;15.90;99.90;;;;;;5116179;28;20078;-70
2023/07/20 07:04:46;;;;;;;1.58;0.40;;;16.00;99.90;;;;;;5133905;28;20043;-69
2023/07/20 07:07:14;;;;;;;2.95;0.50;;;16.10;99.90;;;;;;5115707;28;20130;-71
2023/07/20 07:09:40;;;;;;;1.65;0.38;;;16.20;99.90;;;;;;5115601;28;20078;-71
2023/07/20 07:12:07;;;;;;;1.60;0.43;;;16.20;99.90;;;;;;5099170;28;20126;-71
2023/07/20 07:14:32;;;;;;;3.30;0.50;;;16.30;99.90;;;;;;5115488;28;20376;-71
2023/07/20 07:16:58;;;;;;;2.97;0.40;;;16.40;99.90;;;;;;5116104;28;20046;-71
2023/07/20 07:19:24;;;;;;;2.63;0.30;;;16.40;99.90;;;;;;5115762;28;20050;-72
2023/07/20 07:21:50;;;;;;;1.90;0.50;;;16.50;99.90;;;;;;5133704;28;20043;-71
2023/07/20 07:24:16;;;;;;;2.58;0.50;;;16.50;99.90;;;;;;5099005;28;20054;-72
2023/07/20 07:26:42;;;;;;;1.57;0.43;;;16.60;99.90;;;;;;5133798;28;20399;-72
2023/07/20 07:29:08;;;;;;;3.77;0.40;;;16.80;99.90;;;;;;5134386;28;20047;-71
2023/07/20 07:31:35;;;;;;;1.60;0.53;;;17.00;99.90;;;;;;5133744;28;20047;-73
2023/07/20 07:34:02;;;;;;;3.58;0.50;;;17.30;99.90;;;;;;5134183;28;20054;-72
2023/07/20 07:36:28;;;;;;;2.70;0.57;;;17.50;99.90;;;;;;5098550;28;20083;-71
2023/07/20 07:38:53;;;;;;;2.90;0.40;;;17.50;99.90;;;;;;5134355;28;20078;-71
2023/07/20 07:41:20;;;;;;;3.63;0.40;;;17.50;99.90;;;;;;5133608;28;20096;-72
2023/07/20 07:43:46;;;;;;;3.63;0.40;;;17.70;99.90;;;;;;5117835;27;20057;-73
2023/07/20 07:46:12;;;;;;;3.60;0.33;;;17.90;99.90;;;;;;5137622;27;20042;-72
2023/07/20 07:48:38;;;;;;;1.17;0.30;;;18.20;99.90;;;;;;5137335;27;20555;-71
2023/07/20 07:51:03;;;;;;;1.97;0.40;;;18.30;99.90;;;;;;5136809;27;20124;-71
2023/07/20 07:53:29;;;;;;;1.83;0.40;;;18.40;99.90;;;;;;5137776;27;20432;-70
2023/07/20 07:55:55;;;;;;;1.80;0.50;;;18.30;99.90;;;;;;5137822;27;20045;-73
2023/07/20 07:58:21;;;;;;;2.83;0.30;;;18.00;99.90;;;;;;5137121;27;20498;-71
2023/07/20 08:00:47;;;;;;;2.63;0.50;;;17.80;99.90;;;;;;5102047;27;20089;-72
2023/07/20 08:03:13;;;;;;;1.13;0.30;;;17.80;99.90;;;;;;5136935;27;20075;-69
2023/07/20 08:05:39;;;;;;;1.27;0.40;;;18.00;99.90;;;;;;5119320;27;20043;-72
2023/07/20 08:08:05;;;;;;;3.33;0.50;;;18.10;99.90;;;;;;5119223;27;20047;-73
2023/07/20 08:10:31;;;;;;;2.17;0.40;;;18.40;99.90;;;;;;5101722;27;20390;-72
2023/07/20 08:12:57;;;;;;;2.45;0.40;;;18.70;99.90;;;;;;5118427;27;20039;-73
2023/07/20 08:15:23;;;;;;;1.07;0.40;;;19.00;99.90;;;;;;5137639;27;20047;-72
2023/07/20 08:17:51;;;;;;;2.30;0.30;;;19.20;99.90;;;;;;5118960;27;20386;-72
2023/07/20 08:20:18;;;;;;;2.28;0.40;;;19.40;99.90;;;;;;5118383;27;20402;-72
2023/07/20 08:22:43;;;;;;;2.38;0.38;;;19.20;99.90;;;;;;5137362;27;20047;-73
2023/07/20 08:25:09;;;;;;;2.70;0.40;;;19.20;99.90;;;;;;5135883;27;20096;-73
2023/07/20 08:27:36;;;;;;;5.17;0.40;;;18.90;99.90;;;;;;5136629;27;20035;-72
2023/07/20 08:30:04;;;;;;;2.33;0.30;;;18.50;99.90;;;;;;5137175;27;20100;-72
2023/07/20 08:32:29;;;;;;;2.25;0.40;;;18.20;99.90;;;;;;5118690;27;20109;-71
2023/07/20 08:34:55;;;;;;;3.67;0.67;;;18.00;99.90;;;;;;5136220;27;20043;-72
2023/07/20 08:37:21;;;;;;;2.93;0.40;;;18.10;99.90;;;;;;5118366;27;20047;-72
2023/07/20 08:39:47;;;;;;;2.73;0.40;;;17.90;99.90;;;;;;5136952;27;20127;-72
2023/07/20 08:42:15;;;;;;;1.33;0.43;;;17.90;99.90;;;;;;5136267;27;20047;-71
2023/07/20 08:44:42;;;;;;;3.05;0.40;;;17.90;99.90;;;;;;5117993;27;20047;-73
2023/07/20 08:47:09;;;;;;;2.22;0.50;;;18.10;99.90;;;;;;5136979;27;20096;-72
2023/07/20 08:49:35;;;;;;;4.10;0.70;;;18.30;99.90;;;;;;5136171;27;20047;-70
2023/07/20 08:52:01;;;;;;;1.50;0.50;;;18.70;99.90;;;;;;5117520;27;20065;-72
2023/07/20 08:54:32;;;;;;;3.00;0.47;;;18.80;99.90;;;;;;5135824;27;20043;-71
2023/07/20 08:57:02;;;;;;;5.03;0.40;;;18.90;99.90;;;;;;5101678;27;20130;-72
2023/07/20 08:59:30;;;;;;;3.08;0.50;;;19.00;99.90;;;;;;5136296;27;20043;-71
2023/07/20 09:02:00;;;;;;;4.63;0.40;;;18.90;99.90;;;;;;5135779;27;20188;-72
2023/07/20 09:04:26;;;;;;;1.65;0.40;;;19.00;99.90;;;;;;5136459;27;20089;-72
2023/07/20 09:06:51;;;;;;;4.70;0.30;;;19.10;99.90;;;;;;5117630;27;20042;-71
2023/07/20 09:09:18;;;;;;;2.07;0.33;;;19.10;99.90;;;;;;5135701;27;20039;-72
2023/07/20 09:11:47;;;;;;;3.40;0.40;;;19.20;99.90;;;;;;5117383;27;20515;-71
2023/07/20 09:14:13;;;;;;;1.83;0.40;;;19.30;99.90;;;;;;5117285;27;20043;-70
2023/07/20 09:16:54;;;;;;;1.73;0.50;;;19.40;99.90;;;;;;5134346;27;20047;-70
2023/07/20 09:19:21;;;;;;;2.65;0.65;;;19.70;99.90;;;;;;5083701;27;20055;-73
2023/07/20 09:21:48;;;;;;;5.63;0.65;;;19.70;99.90;;;;;;5135539;27;20414;-69
2023/07/20 09:24:15;;;;;;;3.15;0.60;;;19.80;99.90;;;;;;5135439;27;20118;-72
2023/07/20 09:26:42;;;;;;;;;;;19.80;99.90;;;;;;5135884;27;20043;-71
2023/07/20 09:29:11;;;;;;;3.83;0.60;;;19.40;99.90;;;;;;5135360;27;19919;-72
2023/07/20 09:31:39;;;;;;;3.28;0.50;;;19.40;99.90;;;;;;5100316;27;20039;-71
2023/07/20 09:34:05;;;;;;;2.03;0.50;;;19.30;99.90;;;;;;5135256;27;20101;-71
2023/07/20 09:36:35;;;;;;;3.33;0.60;;;19.20;99.90;;;;;;5135559;27;20446;-71
2023/07/20 09:39:02;;;;;;;5.35;0.60;;;19.00;99.90;;;;;;5152317;27;20058;-69
2023/07/20 09:41:28;;;;;;;3.85;0.70;;;19.20;99.90;;;;;;5100101;27;20039;-70
2023/07/20 09:43:54;;;;;;;3.77;0.90;;;19.30;99.90;;;;;;5133981;27;20049;-71
2023/07/20 09:46:20;;;;;;;3.00;0.60;;;19.50;99.90;;;;;;5135193;27;20039;-71
2023/07/20 09:48:55;;;;;;;1.80;0.40;;;19.70;99.90;;;;;;5135488;27;20122;-70
2023/07/20 09:51:24;;;;;;;4.32;0.70;;;19.80;99.90;;;;;;5116491;27;20316;-69
2023/07/20 09:53:53;;;;;;;3.58;0.60;;;19.80;99.90;;;;;;5135817;27;20050;-71
2023/07/20 09:56:22;;;;;;;2.47;0.65;;;20.00;99.90;;;;;;5116719;27;20050;-70
2023/07/20 09:58:48;;;;;;;2.42;0.52;;;20.10;99.90;;;;;;5134866;27;20053;-72
2023/07/20 10:01:21;;;;;;;2.80;0.60;;;19.90;99.90;;;;;;5134776;27;20083;-71
2023/07/20 10:03:49;;;;;;;2.08;0.70;;;19.60;99.90;;;;;;5117228;27;20049;-72
2023/07/20 10:06:19;;;;;;;2.55;0.60;;;19.40;99.90;;;;;;5116361;27;20039;-71
2023/07/20 10:08:47;;;;;;;1.67;0.47;;;19.10;99.90;;;;;;5135389;27;20105;-70
2023/07/20 10:11:15;;;;;;;2.13;0.60;;;19.00;99.90;;;;;;5134707;27;20047;-70
2023/07/20 10:13:44;;;;;;;5.60;0.80;;;19.00;99.90;;;;;;5134737;27;20550;-70
2023/07/20 10:16:14;;;;;;;6.15;1.15;;;18.80;99.90;;;;;;5134643;27;20102;-69
2023/07/20 10:19:11;;;;;;;4.47;1.00;;;17.20;99.90;;;;;;5134656;27;20047;-69
2023/07/20 10:21:42;;;;;;;4.90;1.17;;;16.70;99.90;;;;;;5135180;27;20126;-68
2023/07/20 10:24:08;;;;;;;5.60;1.27;;;16.20;99.90;;;;;;5135314;27;20118;-68
2023/07/20 10:26:34;;;;;;;;;;;15.90;99.90;;;;;;5116766;27;20046;-68
2023/07/20 10:29:01;;;;;;;2.45;0.70;;;15.80;99.90;;;;;;5099465;28;20015;-69
2023/07/20 10:31:28;;;;;;;;;;;15.70;99.90;;;;;;5134781;27;20043;-68
2023/07/20 10:33:56;;;;;;;4.20;0.90;;;15.70;99.90;;;;;;5135224;27;19920;-67
2023/07/20 10:36:29;;;;;;;3.72;1.10;;;15.70;99.90;;;;;;5134609;27;20050;-67
2023/07/20 10:38:57;;;;;;;2.67;1.00;;;15.90;99.90;;;;;;5116281;28;20515;-67
2023/07/20 10:41:27;;;;;;;2.53;0.88;;;16.00;99.90;;;;;;5134325;28;20455;-67
2023/07/20 10:44:02;;;;;;;4.40;0.93;;;16.20;99.90;;;;;;5116088;28;20115;-67
2023/07/20 10:46:33;;;;;;;3.42;1.02;;;16.20;99.90;;;;;;5133278;28;20040;-67
2023/07/20 10:49:04;;;;;;;3.55;1.10;;;16.30;99.90;;;;;;5116041;28;20077;-67
2023/07/20 10:51:30;;;;;;;3.20;1.00;;;16.60;99.90;;;;;;5134128;28;20059;-67
2023/07/20 10:54:01;;;;;;;2.28;0.80;;;16.80;99.90;;;;;;5134476;28;20566;-67
2023/07/20 10:56:31;;;;;;;1.70;0.90;;;17.00;99.90;;;;;;5099375;28;20043;-68
2023/07/20 10:59:00;;;;;;;2.08;0.70;;;17.10;99.90;;;;;;5134184;28;20465;-69
2023/07/20 11:01:31;;;;;;;2.45;0.75;;;17.40;99.90;;;;;;5134071;28;20072;-67
2023/07/20 11:04:00;;;;;;;2.95;1.10;;;17.60;99.90;;;;;;5133943;28;20043;-68
2023/07/20 11:06:26;;;;;;;4.07;1.00;;;17.60;99.90;;;;;;5134106;28;20402;-68
2023/07/20 11:09:11;;;;;;;3.20;0.90;;;17.70;99.90;;;;;;5133764;28;20043;-69
2023/07/20 11:11:38;;;;;;;2.30;0.88;;;17.80;99.90;;;;;;5134111;28;20035;-69
2023/07/20 11:14:07;;;;;;;3.67;1.33;;;17.80;99.90;;;;;;5133994;28;20051;-69
2023/07/20 11:16:36;;;;;;;5.05;1.88;;;17.80;99.90;;;;;;5117103;27;20054;-69
2023/07/20 11:19:03;;;;;;;2.40;1.00;;;17.80;99.90;;;;;;5138485;27;20043;-71
2023/07/20 11:21:37;;;;;;;2.22;0.60;;;17.90;99.90;;;;;;5119989;27;20046;-69
2023/07/20 11:24:04;;;;;;;2.28;0.47;;;17.90;99.90;;;;;;5137784;27;20070;-71
2023/07/20 11:26:30;;;;;;;1.73;0.50;;;18.00;99.90;;;;;;5137765;27;20086;-69
2023/07/20 11:28:55;;;;;;;4.13;0.60;;;18.00;99.90;;;;;;5138191;27;20083;-69
2023/07/20 11:31:21;;;;;;;1.80;0.80;;;18.00;99.90;;;;;;5102697;27;20039;-70
2023/07/20 11:33:47;;;;;;;3.80;0.80;;;18.10;99.90;;;;;;5102394;27;20447;-70
2023/07/20 11:36:13;;;;;;;4.77;0.90;;;18.30;99.90;;;;;;5138358;27;20047;-70
2023/07/20 11:38:43;;;;;;;4.60;0.85;;;18.60;99.90;;;;;;5119959;27;20082;-70
2023/07/20 11:41:09;;;;;;;2.00;0.70;;;18.70;99.90;;;;;;5137590;27;20099;-72
2023/07/20 11:43:37;;;;;;;2.40;0.60;;;18.80;99.90;;;;;;5137775;27;20047;-72
2023/07/20 11:46:05;;;;;;;3.30;0.63;;;19.00;99.90;;;;;;5120219;27;20047;-72
2023/07/20 11:48:31;;;;;;;2.50;0.52;;;19.20;99.90;;;;;;5137349;27;20076;-71
2023/07/20 11:50:56;;;;;;;1.73;0.57;;;19.40;99.90;;;;;;5153473;27;20039;-72
2023/07/20 11:53:25;;;;;;;3.33;0.60;;;19.60;99.90;;;;;;5118765;27;20058;-72
2023/07/20 11:55:52;;;;;;;2.47;0.50;;;19.90;99.90;;;;;;5120010;27;20047;-72
2023/07/20 11:58:18;;;;;;;2.13;0.47;;;20.10;99.90;;;;;;5138019;27;20055;-71
2023/07/20 12:00:45;;;;;;;2.63;0.53;;;20.20;99.90;;;;;;5137790;27;20511;-72
2023/07/20 12:03:12;;;;;;;2.63;0.50;;;20.40;99.90;;;;;;5119009;27;20386;-74
2023/07/20 12:05:39;;;;;;;3.38;0.60;;;20.60;99.90;;;;;;5118602;27;20043;-74
2023/07/20 12:08:04;;;;;;;;;;;20.80;99.90;;;;;;5119922;27;20134;-73
2023/07/20 12:10:30;;;;;;;2.33;0.50;;;21.10;99.90;;;;;;5118770;27;20387;-73
2023/07/20 12:13:05;;;;;;;3.20;0.60;;;21.30;99.90;;;;;;5136936;27;20039;-72
2023/07/20 12:15:31;;;;;;;2.42;0.50;;;21.30;99.90;;;;;;5136978;27;20088;-73
2023/07/20 12:18:01;;;;;;;2.45;0.50;;;21.30;99.90;;;;;;5118735;27;20046;-72
2023/07/20 12:20:35;;;;;;;2.72;0.63;;;21.40;99.90;;;;;;5118924;27;20555;-73
2023/07/20 12:23:02;;;;;;;2.25;0.47;;;21.60;99.90;;;;;;5153130;27;20046;-73
2023/07/20 12:25:39;;;;;;;1.55;0.40;;;21.60;99.90;;;;;;5136322;27;20455;-71
2023/07/20 12:28:15;;;;;;;;;;;21.50;99.90;;;;;;5136677;27;20043;-72
2023/07/20 12:30:42;;;;;;;1.50;0.50;;;21.70;99.90;;;;;;5118479;27;19933;-72
2023/07/20 12:33:08;;;;;;;4.22;0.73;;;21.70;99.90;;;;;;5137070;27;20486;-73
2023/07/20 12:35:34;;;;;;;1.50;0.57;;;21.90;99.90;;;;;;5118132;27;20047;-69
2023/07/20 12:38:01;;;;;;;2.80;0.55;;;22.10;99.90;;;;;;5101554;27;20066;-72
2023/07/20 12:40:27;;;;;;;2.45;0.70;;;22.20;99.90;;;;;;5136345;27;20053;-72
2023/07/20 12:42:52;;;;;;;3.35;0.80;;;22.40;99.90;;;;;;5101453;27;20047;-72
2023/07/20 12:45:18;;;;;;;1.90;0.50;;;22.00;99.90;;;;;;5118351;27;20039;-73
2023/07/20 12:47:44;;;;;;;2.53;0.60;;;22.30;99.90;;;;;;5118041;27;20463;-71